Time;durP1;ratioP1;P1;durP2;ratioP2;P2;SDS_P1;SDS_P2;PMS_P1;PMS_P2;Temp;Humidity;BMP_temperature;BMP_pressure;BME280_temperature;BME280_humidity;BME280_pressure;Samples;Min_cycle;Max_cycle;Signal;HPM_P1;HPM_P2
2023/10/18 00:00:25;;;;;;;5.97;3.10;;;;;;;;;;5144701;27;20485;-76
2023/10/18 00:02:53;;;;;;;10.15;2.60;;;;;;;;;;5144724;27;20049;-73
2023/10/18 00:05:22;;;;;;;6.72;2.45;;;;;;;;;;5144408;27;20235;-69
2023/10/18 00:07:51;;;;;;;7.40;2.83;;;;;;;;;;5144616;27;20080;-75
2023/10/18 00:10:21;;;;;;;9.63;2.70;;;;;;;;;;5144382;27;20043;-71
2023/10/18 00:12:48;;;;;;;6.10;2.83;;;;;;;;;;5144534;27;20053;-75
2023/10/18 00:15:15;;;;;;;5.15;2.33;;;;;;;;;;5144549;27;20105;-75
2023/10/18 00:17:43;;;;;;;9.02;2.85;;;;;;;;;;5144022;27;20051;-75
2023/10/18 00:20:15;;;;;;;7.65;2.50;;;;;;;;;;5144167;27;20343;-76
2023/10/18 00:22:44;;;;;;;9.07;2.63;;;;;;;;;;5144448;27;20318;-75
2023/10/18 00:25:11;;;;;;;8.98;2.80;;;;;;;;;;5144103;27;20207;-72
2023/10/18 00:27:38;;;;;;;10.07;3.22;;;;;;;;;;5144219;27;20110;-75
2023/10/18 00:30:12;;;;;;;7.75;2.53;;;;;;;;;;5143959;27;20177;-75
2023/10/18 00:32:41;;;;;;;11.65;3.20;;;;;;;;;;5143999;27;20051;-71
2023/10/18 00:35:23;;;;;;;7.68;2.63;;;;;;;;;;5125760;27;20054;-73
2023/10/18 00:37:57;;;;;;;8.00;3.30;;;;;;;;;;5144028;27;20315;-74
2023/10/18 00:43:44;;;;;;;5.88;2.45;;;;;;;;;;5144028;27;20072;-75
2023/10/18 00:46:06;;;;;;;7.20;2.60;;;;;;;;;;5141042;27;20047;-76
2023/10/18 00:48:33;;;;;;;5.57;2.45;;;;;;;;;;5143576;27;20247;-74
2023/10/18 00:51:00;;;;;;;6.78;2.58;;;;;;;;;;5143457;27;20110;-75
2023/10/18 00:53:30;;;;;;;8.32;2.58;;;;;;;;;;5143387;27;20068;-75
2023/10/18 00:56:04;;;;;;;;;;;;;;;;;;5144415;27;20043;-75
2023/10/18 00:58:33;;;;;;;8.27;2.88;;;;;;;;;;5143514;27;19915;-75
2023/10/18 01:01:08;;;;;;;6.47;2.72;;;;;;;;;;5143284;27;20043;-72
2023/10/18 01:03:46;;;;;;;9.88;2.67;;;;;;;;;;5143111;27;20043;-71
2023/10/18 01:06:21;;;;;;;4.70;2.17;;;;;;;;;;5143562;27;20043;-75
2023/10/18 01:08:49;;;;;;;8.93;2.72;;;;;;;;;;5142956;27;20102;-75
2023/10/18 01:11:22;;;;;;;11.50;2.60;;;;;;;;;;5143262;27;20066;-75
2023/10/18 01:13:49;;;;;;;9.13;2.90;;;;;;;;;;5143316;27;20239;-69
2023/10/18 01:16:22;;;;;;;9.65;2.58;;;;;;;;;;5143209;27;20054;-75
2023/10/18 01:18:52;;;;;;;10.90;2.83;;;;;;;;;;5143518;27;20106;-75
2023/10/18 01:21:20;;;;;;;9.60;2.45;;;;;;;;;;5143059;27;20107;-70
2023/10/18 01:23:52;;;;;;;9.57;2.90;;;;;;;;;;5143111;27;20043;-75
2023/10/18 01:26:20;;;;;;;12.23;2.97;;;;;;;;;;5143289;27;20163;-71
2023/10/18 01:28:48;;;;;;;8.65;2.50;;;;;;;;;;5143035;27;20043;-75
2023/10/18 01:31:15;;;;;;;6.57;2.30;;;;;;;;;;5143040;27;20051;-68
2023/10/18 01:33:50;;;;;;;7.25;2.42;;;;;;;;;;5143076;27;20043;-72
2023/10/18 01:36:20;;;;;;;7.15;2.67;;;;;;;;;;5142711;27;20372;-74
2023/10/18 01:38:51;;;;;;;8.80;2.63;;;;;;;;;;5142826;27;20132;-72
2023/10/18 01:41:25;;;;;;;9.20;2.40;;;;;;;;;;5142631;27;20412;-74
2023/10/18 01:44:06;;;;;;;9.82;2.70;;;;;;;;;;5143056;27;20043;-76
2023/10/18 01:46:36;;;;;;;6.25;2.58;;;;;;;;;;5142738;27;20050;-76
2023/10/18 01:49:04;;;;;;;9.45;2.30;;;;;;;;;;5124688;27;20080;-72
2023/10/18 01:51:32;;;;;;;9.95;3.10;;;;;;;;;;5142398;27;20065;-76
2023/10/18 01:54:12;;;;;;;7.28;2.38;;;;;;;;;;5142543;27;20114;-76
2023/10/18 01:56:43;;;;;;;9.73;2.72;;;;;;;;;;5142518;27;20043;-75
2023/10/18 01:59:14;;;;;;;7.10;2.15;;;;;;;;;;5142015;27;20063;-75
2023/10/18 02:01:44;;;;;;;7.93;2.45;;;;;;;;;;5139345;27;20043;-76
2023/10/18 02:04:23;;;;;;;8.60;2.47;;;;;;;;;;5136879;27;20066;-70
2023/10/18 02:07:10;;;;;;;8.18;2.55;;;;;;;;;;5141469;27;20066;-69
2023/10/18 02:09:49;;;;;;;10.85;2.47;;;;;;;;;;5141878;27;20240;-68
2023/10/18 02:12:20;;;;;;;13.05;2.70;;;;;;;;;;5142463;27;20131;-71
2023/10/18 02:14:50;;;;;;;8.20;2.33;;;;;;;;;;5142216;27;20051;-73
2023/10/18 02:17:18;;;;;;;13.05;2.65;;;;;;;;;;5141764;27;20258;-75
2023/10/18 02:19:46;;;;;;;10.23;2.90;;;;;;;;;;5141411;27;20039;-75
2023/10/18 02:22:13;;;;;;;12.70;3.72;;;;;;;;;;5141755;27;20231;-76
2023/10/18 02:24:42;;;;;;;10.25;2.83;;;;;;;;;;5141989;27;20043;-75
2023/10/18 02:27:15;;;;;;;8.30;2.30;;;;;;;;;;5141315;27;20051;-76
2023/10/18 02:29:44;;;;;;;6.22;2.60;;;;;;;;;;5141807;27;20092;-73
2023/10/18 02:32:32;;;;;;;9.07;2.70;;;;;;;;;;5141560;27;20064;-75
2023/10/18 02:34:59;;;;;;;6.78;2.28;;;;;;;;;;5142083;27;20110;-76
2023/10/18 02:37:26;;;;;;;7.40;2.08;;;;;;;;;;5141191;27;20444;-70
2023/10/18 02:40:07;;;;;;;6.63;2.08;;;;;;;;;;5141527;27;20110;-76
2023/10/18 02:42:34;;;;;;;6.38;2.38;;;;;;;;;;5141776;27;20043;-73
2023/10/18 02:45:04;;;;;;;11.15;2.97;;;;;;;;;;5141791;27;20063;-74
2023/10/18 02:47:32;;;;;;;11.32;3.08;;;;;;;;;;5141702;27;20075;-72
2023/10/18 02:49:59;;;;;;;6.00;2.22;;;;;;;;;;5141275;27;20043;-75
2023/10/18 02:52:30;;;;;;;9.40;2.60;;;;;;;;;;5141301;27;20039;-76
2023/10/18 02:54:57;;;;;;;9.98;2.50;;;;;;;;;;5141103;27;20355;-72
2023/10/18 02:57:24;;;;;;;8.80;2.63;;;;;;;;;;5141631;27;20049;-76
2023/10/18 02:59:51;;;;;;;8.57;2.47;;;;;;;;;;5141284;27;20051;-75
2023/10/18 03:02:24;;;;;;;5.22;2.28;;;;;;;;;;5141281;27;20411;-74
2023/10/18 03:04:52;;;;;;;5.22;2.25;;;;;;;;;;5141348;27;20232;-75
2023/10/18 03:07:21;;;;;;;8.07;2.65;;;;;;;;;;5141217;27;20396;-75
2023/10/18 03:09:51;;;;;;;10.07;2.50;;;;;;;;;;5140818;27;20085;-73
2023/10/18 03:12:18;;;;;;;6.68;2.53;;;;;;;;;;5141046;27;20051;-75
2023/10/18 03:14:57;;;;;;;8.35;2.33;;;;;;;;;;5141261;27;20312;-73
2023/10/18 03:17:24;;;;;;;7.32;2.33;;;;;;;;;;5141055;27;20055;-75
2023/10/18 03:19:56;;;;;;;9.13;3.28;;;;;;;;;;5141263;28;20043;-75
2023/10/18 03:22:29;;;;;;;8.88;2.70;;;;;;;;;;5141055;27;20122;-76
2023/10/18 03:24:58;;;;;;;7.53;2.38;;;;;;;;;;5141172;28;20050;-75
2023/10/18 03:27:41;;;;;;;8.93;2.83;;;;;;;;;;5141192;28;20361;-76
2023/10/18 03:30:17;;;;;;;7.47;2.53;;;;;;;;;;5141770;27;20043;-75
2023/10/18 03:32:49;;;;;;;9.70;3.17;;;;;;;;;;5145142;27;20035;-73
2023/10/18 03:35:20;;;;;;;8.82;2.90;;;;;;;;;;5145476;27;20046;-73
2023/10/18 03:37:48;;;;;;;11.13;2.50;;;;;;;;;;5145391;27;20043;-76
2023/10/18 03:40:24;;;;;;;10.98;2.63;;;;;;;;;;5145079;27;20071;-76
2023/10/18 03:42:51;;;;;;;7.03;2.53;;;;;;;;;;5145262;27;20051;-76
2023/10/18 03:45:58;;;;;;;11.50;2.85;;;;;;;;;;5145314;27;20051;-74
2023/10/18 03:48:23;;;;;;;8.02;2.67;;;;;;;;;;5144466;27;20050;-74
2023/10/18 03:50:50;;;;;;;9.00;2.92;;;;;;;;;;5145120;27;20397;-74
2023/10/18 03:53:21;;;;;;;11.88;3.00;;;;;;;;;;5144750;27;20043;-75
2023/10/18 03:55:49;;;;;;;8.77;2.45;;;;;;;;;;5145080;27;20050;-73
2023/10/18 03:58:24;;;;;;;6.82;2.65;;;;;;;;;;5144687;27;20350;-74
2023/10/18 04:00:54;;;;;;;6.53;2.53;;;;;;;;;;5144150;27;20346;-74
2023/10/18 04:03:27;;;;;;;9.27;2.42;;;;;;;;;;5144670;27;20376;-76
2023/10/18 04:05:56;;;;;;;9.55;2.63;;;;;;;;;;5143667;27;20051;-74
2023/10/18 04:08:26;;;;;;;8.43;2.38;;;;;;;;;;5144395;27;20047;-76
2023/10/18 04:11:01;;;;;;;6.60;2.58;;;;;;;;;;5144463;27;20216;-75
2023/10/18 04:13:31;;;;;;;10.45;2.58;;;;;;;;;;5144418;27;20327;-74
2023/10/18 04:16:11;;;;;;;9.63;2.70;;;;;;;;;;5144740;27;20071;-74
2023/10/18 04:18:41;;;;;;;12.82;2.72;;;;;;;;;;5144125;27;20337;-75
2023/10/18 04:21:15;;;;;;;9.98;2.75;;;;;;;;;;5144730;27;20106;-74
2023/10/18 04:23:46;;;;;;;13.50;2.80;;;;;;;;;;5143683;27;20227;-76
2023/10/18 04:26:15;;;;;;;;;;;;;;;;;;5144987;27;20096;-76
2023/10/18 04:28:43;;;;;;;6.10;2.33;;;;;;;;;;5144065;27;19960;-75
2023/10/18 04:31:11;;;;;;;9.40;2.85;;;;;;;;;;5144093;27;20423;-75
2023/10/18 04:33:42;;;;;;;8.43;2.78;;;;;;;;;;5144336;27;20043;-70
2023/10/18 04:36:11;;;;;;;10.70;2.75;;;;;;;;;;5144017;27;20051;-71
2023/10/18 04:38:47;;;;;;;9.45;2.60;;;;;;;;;;5143784;27;20220;-74
2023/10/18 04:46:38;;;;;;;12.52;3.47;;;;;;;;;;5144005;27;20530;-71
2023/10/18 04:54:11;;;;;;;12.15;2.70;;;;;;;;;;5143495;27;20114;-76
2023/10/18 04:56:38;;;;;;;;;;;;;;;;;;5144157;27;20477;-73
2023/10/18 04:59:26;;;;;;;11.77;2.28;;;;;;;;;;5143744;27;19942;-76
2023/10/18 05:04:32;;;;;;;8.55;2.78;;;;;;;;;;5143777;27;20043;-76
2023/10/18 05:07:06;;;;;;;9.27;2.95;;;;;;;;;;5143582;27;20383;-75
2023/10/18 05:09:42;;;;;;;14.43;2.83;;;;;;;;;;5142895;27;20110;-76
2023/10/18 05:14:50;;;;;;;11.90;2.58;;;;;;;;;;5143560;27;20365;-76
2023/10/18 05:17:26;;;;;;;7.65;2.50;;;;;;;;;;5143181;27;20227;-74
2023/10/18 05:19:56;;;;;;;8.77;2.30;;;;;;;;;;5143004;27;20050;-76
2023/10/18 05:22:24;;;;;;;9.48;2.60;;;;;;;;;;5143665;27;20047;-74
2023/10/18 05:25:14;;;;;;;8.20;2.28;;;;;;;;;;5124864;27;20047;-76
2023/10/18 05:27:46;;;;;;;8.15;2.40;;;;;;;;;;5143157;27;20047;-74
2023/10/18 05:30:16;;;;;;;8.75;2.50;;;;;;;;;;5143220;27;20085;-76
2023/10/18 05:32:49;;;;;;;6.68;2.28;;;;;;;;;;5143175;27;20054;-73
2023/10/18 05:35:21;;;;;;;5.88;2.33;;;;;;;;;;5143015;27;20047;-74
2023/10/18 05:37:58;;;;;;;6.88;2.10;;;;;;;;;;5143029;27;20043;-74
2023/10/18 05:43:03;;;;;;;10.45;2.50;;;;;;;;;;5142995;27;20054;-74
2023/10/18 05:45:33;;;;;;;7.72;2.42;;;;;;;;;;5142949;27;20043;-76
2023/10/18 05:48:09;;;;;;;11.07;3.00;;;;;;;;;;5142773;27;20035;-76
2023/10/18 05:50:45;;;;;;;5.63;2.33;;;;;;;;;;5142449;27;20054;-75
2023/10/18 05:53:12;;;;;;;10.07;2.53;;;;;;;;;;5141889;27;20063;-74
2023/10/18 05:55:39;;;;;;;7.90;2.40;;;;;;;;;;5141796;27;20110;-76
2023/10/18 05:58:05;;;;;;;6.88;2.75;;;;;;;;;;5142637;27;20046;-74
2023/10/18 06:00:35;;;;;;;13.68;2.70;;;;;;;;;;5142335;27;20380;-76
2023/10/18 06:03:01;;;;;;;7.28;2.65;;;;;;;;;;5142284;27;20089;-76
2023/10/18 06:05:33;;;;;;;8.20;2.90;;;;;;;;;;5142667;27;20120;-73
2023/10/18 06:08:01;;;;;;;13.55;2.90;;;;;;;;;;5141905;27;20042;-76
2023/10/18 06:10:27;;;;;;;9.05;2.72;;;;;;;;;;5142176;27;20406;-76
2023/10/18 06:13:05;;;;;;;8.20;2.05;;;;;;;;;;5142379;27;20087;-75
2023/10/18 06:15:34;;;;;;;9.10;2.60;;;;;;;;;;5142316;27;20067;-72
2023/10/18 06:18:01;;;;;;;15.27;3.40;;;;;;;;;;5141907;27;20055;-76
2023/10/18 06:20:28;;;;;;;13.30;3.30;;;;;;;;;;5142262;27;20079;-75
2023/10/18 06:25:44;;;;;;;7.25;2.30;;;;;;;;;;5141924;27;20043;-76
2023/10/18 06:28:11;;;;;;;8.93;2.50;;;;;;;;;;5142102;27;20080;-75
2023/10/18 06:30:42;;;;;;;8.90;2.63;;;;;;;;;;5141696;27;20073;-74
2023/10/18 06:33:09;;;;;;;8.00;2.47;;;;;;;;;;5141638;27;20366;-69
2023/10/18 06:35:43;;;;;;;7.93;2.65;;;;;;;;;;5141958;27;20073;-69
2023/10/18 06:38:17;;;;;;;8.13;2.75;;;;;;;;;;5141373;27;20043;-72
2023/10/18 06:40:51;;;;;;;9.13;2.60;;;;;;;;;;5141577;27;20043;-71
2023/10/18 06:43:31;;;;;;;7.63;2.97;;;;;;;;;;5141465;27;20093;-75
2023/10/18 06:45:58;;;;;;;10.02;2.83;;;;;;;;;;5141586;27;20043;-74
2023/10/18 06:48:28;;;;;;;10.82;2.65;;;;;;;;;;5141793;27;20043;-75
2023/10/18 06:50:56;;;;;;;7.60;2.15;;;;;;;;;;5141646;27;20086;-74
2023/10/18 06:53:25;;;;;;;5.60;2.17;;;;;;;;;;5141129;27;20047;-71
2023/10/18 06:55:56;;;;;;;7.25;2.97;;;;;;;;;;5141118;27;20049;-76
2023/10/18 07:00:55;;;;;;;16.52;3.00;;;;;;;;;;5141110;27;20043;-75
2023/10/18 07:03:27;;;;;;;9.50;2.80;;;;;;;;;;5141395;27;20054;-75
2023/10/18 07:05:56;;;;;;;8.52;2.35;;;;;;;;;;5140880;27;20038;-75
2023/10/18 07:08:33;;;;;;;14.32;2.42;;;;;;;;;;5141307;27;20046;-75
2023/10/18 07:11:08;;;;;;;8.18;2.60;;;;;;;;;;5122916;28;20235;-73
2023/10/18 07:13:49;;;;;;;8.60;2.67;;;;;;;;;;5141358;27;20046;-75
2023/10/18 07:16:38;;;;;;;11.65;2.58;;;;;;;;;;5122938;28;20142;-75
2023/10/18 07:19:48;;;;;;;10.98;2.55;;;;;;;;;;5141119;28;20331;-75
2023/10/18 07:22:04;;;;;;;17.63;3.10;;;;;;;;;;5132437;28;20110;-74
2023/10/18 07:24:36;;;;;;;12.75;2.83;;;;;;;;;;5133852;27;20040;-75
2023/10/18 07:27:03;;;;;;;8.40;2.72;;;;;;;;;;5136455;28;20047;-73
2023/10/18 07:29:37;;;;;;;6.63;2.13;;;;;;;;;;5122317;28;20044;-75
2023/10/18 07:32:06;;;;;;;10.52;2.72;;;;;;;;;;5119973;28;20078;-75
2023/10/18 07:34:36;;;;;;;12.57;2.42;;;;;;;;;;5119930;28;20043;-73
2023/10/18 07:40:10;;;;;;;8.63;2.22;;;;;;;;;;5036966;28;20075;-75
2023/10/18 07:42:43;;;;;;;13.02;2.60;;;;;;;;;;5106643;28;20110;-74
2023/10/18 07:45:21;;;;;;;10.30;2.80;;;;;;;;;;5119840;28;20075;-76
2023/10/18 07:47:53;;;;;;;9.30;2.83;;;;;;;;;;5120179;28;20063;-72
2023/10/18 07:50:41;;;;;;;14.35;3.13;;;;;;;;;;5119910;28;20258;-76
2023/10/18 07:53:12;;;;;;;10.73;2.80;;;;;;;;;;5120191;28;20078;-74
2023/10/18 07:55:41;;;;;;;9.75;2.55;;;;;;;;;;5120196;28;20043;-76
2023/10/18 07:58:22;;;;;;;10.27;2.78;;;;;;;;;;5120507;28;20050;-77
2023/10/18 08:03:30;;;;;;;9.48;3.00;;;;;;;;;;5120281;28;20055;-76
2023/10/18 08:05:59;;;;;;;12.70;2.90;;;;;;;;;;5120218;28;20048;-77
2023/10/18 08:08:26;;;;;;;13.40;2.75;;;;;;;;;;5122970;28;20046;-76
2023/10/18 08:10:54;;;;;;;9.18;2.75;;;;;;;;;;5128738;28;20092;-77
2023/10/18 08:13:28;;;;;;;11.55;2.83;;;;;;;;;;5128840;28;20051;-73
2023/10/18 08:16:10;;;;;;;10.32;2.53;;;;;;;;;;5131626;28;20084;-76
2023/10/18 08:18:42;;;;;;;12.93;3.10;;;;;;;;;;5134482;27;20039;-73
2023/10/18 08:21:37;;;;;;;10.75;3.00;;;;;;;;;;5140630;27;20047;-75
2023/10/18 08:23:56;;;;;;;9.30;2.58;;;;;;;;;;5132316;27;20046;-76
2023/10/18 08:26:26;;;;;;;12.55;3.15;;;;;;;;;;5131884;27;20049;-75
2023/10/18 08:28:53;;;;;;;12.38;3.20;;;;;;;;;;5132725;27;20050;-76
2023/10/18 08:31:33;;;;;;;11.07;2.53;;;;;;;;;;5132405;27;20049;-76
2023/10/18 08:34:15;;;;;;;11.52;2.92;;;;;;;;;;5132686;27;20511;-77
2023/10/18 08:36:45;;;;;;;12.65;3.15;;;;;;;;;;5132447;27;20120;-75
2023/10/18 08:39:12;;;;;;;10.20;2.58;;;;;;;;;;5131986;27;20078;-76
2023/10/18 08:42:13;;;;;;;13.80;2.92;;;;;;;;;;5132274;27;20127;-74
2023/10/18 08:44:40;;;;;;;8.15;2.38;;;;;;;;;;5132394;27;20104;-75
2023/10/18 08:49:56;;;;;;;11.05;2.50;;;;;;;;;;5131776;27;20054;-74
2023/10/18 08:52:31;;;;;;;9.55;2.55;;;;;;;;;;5131770;27;20090;-73
2023/10/18 08:55:19;;;;;;;13.23;3.00;;;;;;;;;;5131960;27;20047;-74
2023/10/18 08:57:47;;;;;;;11.95;2.75;;;;;;;;;;5132221;27;20127;-75
2023/10/18 09:02:53;;;;;;;10.95;2.78;;;;;;;;;;5133903;27;20046;-76
2023/10/18 09:05:23;;;;;;;8.38;2.83;;;;;;;;;;5141464;27;20085;-76
2023/10/18 09:07:53;;;;;;;8.50;2.30;;;;;;;;;;5143790;27;20054;-73
2023/10/18 09:16:01;;;;;;;8.52;2.53;;;;;;;;;;5130983;27;20230;-71
2023/10/18 09:18:34;;;;;;;16.55;2.45;;;;;;;;;;5128995;27;20043;-71
2023/10/18 09:21:19;;;;;;;6.35;2.05;;;;;;;;;;5158774;27;20050;-72
2023/10/18 09:23:47;;;;;;;9.65;2.80;;;;;;;;;;5143448;27;20271;-73
2023/10/18 09:26:26;;;;;;;12.82;2.88;;;;;;;;;;5143079;27;20239;-73
2023/10/18 09:28:59;;;;;;;10.45;2.50;;;;;;;;;;5142655;27;20061;-71
2023/10/18 09:31:26;;;;;;;14.15;3.10;;;;;;;;;;5143061;27;20061;-73
2023/10/18 09:33:58;;;;;;;13.00;2.40;;;;;;;;;;5143055;27;20051;-72
2023/10/18 09:36:27;;;;;;;8.30;2.38;;;;;;;;;;5142975;27;20088;-72
2023/10/18 09:38:55;;;;;;;7.15;2.25;;;;;;;;;;5142097;27;20309;-72
2023/10/18 09:41:22;;;;;;;9.35;2.28;;;;;;;;;;5142664;27;20114;-73
2023/10/18 09:43:49;;;;;;;8.88;2.72;;;;;;;;;;5142655;27;20074;-70
2023/10/18 09:46:16;;;;;;;9.48;2.45;;;;;;;;;;5142851;27;20043;-73
2023/10/18 09:48:46;;;;;;;11.00;3.22;;;;;;;;;;5143010;27;20043;-72
2023/10/18 09:51:15;;;;;;;19.98;3.22;;;;;;;;;;5142740;27;20054;-73
2023/10/18 09:53:49;;;;;;;7.38;2.45;;;;;;;;;;5142399;27;20082;-73
2023/10/18 09:56:27;;;;;;;9.68;2.10;;;;;;;;;;5142614;27;20039;-73
2023/10/18 09:59:05;;;;;;;8.75;2.47;;;;;;;;;;5142922;27;20110;-70
2023/10/18 10:04:17;;;;;;;9.97;2.30;;;;;;;;;;5142468;27;20046;-72
2023/10/18 10:06:47;;;;;;;7.80;2.25;;;;;;;;;;5142168;27;20066;-72
2023/10/18 10:09:14;;;;;;;8.18;2.17;;;;;;;;;;5142079;27;20387;-72
2023/10/18 10:11:46;;;;;;;8.82;2.53;;;;;;;;;;5142124;27;20050;-72
2023/10/18 10:14:21;;;;;;;10.20;2.40;;;;;;;;;;5142209;27;20050;-72
2023/10/18 10:16:57;;;;;;;6.15;2.75;;;;;;;;;;5141977;27;20069;-72
2023/10/18 10:19:29;;;;;;;12.95;2.38;;;;;;;;;;5142244;27;20043;-71
2023/10/18 10:22:07;;;;;;;10.90;2.90;;;;;;;;;;5141797;27;20043;-71
2023/10/18 10:24:44;;;;;;;10.88;2.60;;;;;;;;;;5141777;27;20077;-72
2023/10/18 10:27:27;;;;;;;6.38;2.17;;;;;;;;;;5141805;27;20395;-73
2023/10/18 10:30:33;;;;;;;12.48;3.42;;;;;;;;;;5142246;27;20043;-71
2023/10/18 10:32:58;;;;;;;11.20;3.00;;;;;;;;;;5140216;27;20110;-72
2023/10/18 10:35:32;;;;;;;11.05;2.70;;;;;;;;;;5141627;27;20319;-70
2023/10/18 10:38:18;;;;;;;7.07;2.08;;;;;;;;;;5141447;27;20070;-74
2023/10/18 10:40:48;;;;;;;8.00;2.13;;;;;;;;;;5141358;27;20031;-71
2023/10/18 10:43:19;;;;;;;8.57;2.30;;;;;;;;;;5140591;27;20050;-70
2023/10/18 10:51:22;;;;;;;8.68;2.33;;;;;;;;;;5141685;27;20050;-79
2023/10/18 10:53:57;;;;;;;14.55;2.88;;;;;;;;;;5141332;27;20070;-76
2023/10/18 10:56:26;;;;;;;6.60;2.35;;;;;;;;;;5137946;27;20047;-74
2023/10/18 11:01:40;;;;;;;8.27;2.40;;;;;;;;;;5127396;27;20043;-73
2023/10/18 11:04:46;;;;;;;5.88;2.25;;;;;;;;;;5121042;28;20085;-73
2023/10/18 11:07:27;;;;;;;8.18;2.40;;;;;;;;;;5120918;28;20075;-73
2023/10/18 11:10:06;;;;;;;6.82;2.40;;;;;;;;;;5120375;28;20047;-77
2023/10/18 11:12:34;;;;;;;7.55;2.40;;;;;;;;;;5120731;28;20047;-76
2023/10/18 11:15:01;;;;;;;9.15;2.50;;;;;;;;;;5140006;27;20106;-76
2023/10/18 11:17:29;;;;;;;12.15;2.50;;;;;;;;;;5140996;27;20047;-71
2023/10/18 11:19:59;;;;;;;6.72;2.03;;;;;;;;;;5141184;28;20043;-73
2023/10/18 11:22:33;;;;;;;8.18;2.22;;;;;;;;;;5140753;28;20510;-75
2023/10/18 11:25:00;;;;;;;8.18;2.85;;;;;;;;;;5140839;28;20043;-76
2023/10/18 11:27:36;;;;;;;10.55;2.55;;;;;;;;;;5140828;28;20052;-74
2023/10/18 11:30:16;;;;;;;6.18;2.25;;;;;;;;;;5138991;27;20066;-76
2023/10/18 11:32:46;;;;;;;11.25;2.72;;;;;;;;;;5124041;28;20454;-77
2023/10/18 11:35:17;;;;;;;9.57;2.58;;;;;;;;;;5141138;28;20110;-73
2023/10/18 11:37:47;;;;;;;6.57;2.15;;;;;;;;;;5139962;28;20050;-74
2023/10/18 11:40:16;;;;;;;11.07;2.30;;;;;;;;;;5140745;28;20050;-73
2023/10/18 11:43:06;;;;;;;9.63;2.40;;;;;;;;;;5140381;28;20050;-72
2023/10/18 11:45:36;;;;;;;6.90;2.00;;;;;;;;;;5140821;28;20411;-73
2023/10/18 11:48:09;;;;;;;4.25;1.80;;;;;;;;;;5140666;28;20039;-74
2023/10/18 11:50:42;;;;;;;6.65;1.88;;;;;;;;;;5140962;28;20096;-75
2023/10/18 11:53:12;;;;;;;5.50;2.10;;;;;;;;;;5142282;27;20306;-75
2023/10/18 11:55:59;;;;;;;5.00;1.80;;;;;;;;;;5144908;27;20456;-73
2023/10/18 11:58:33;;;;;;;4.13;1.90;;;;;;;;;;5145020;27;20043;-74
2023/10/18 12:01:06;;;;;;;5.25;2.00;;;;;;;;;;5144640;27;20039;-75
2023/10/18 12:03:38;;;;;;;9.25;2.25;;;;;;;;;;5132902;27;20043;-76
2023/10/18 12:06:11;;;;;;;8.38;2.45;;;;;;;;;;5133230;27;20043;-77
2023/10/18 12:09:07;;;;;;;7.10;2.10;;;;;;;;;;5132552;27;20070;-74
2023/10/18 12:11:34;;;;;;;6.18;2.30;;;;;;;;;;5125667;27;20089;-75
2023/10/18 12:14:01;;;;;;;7.43;2.20;;;;;;;;;;5126975;27;20043;-75
2023/10/18 12:16:28;;;;;;;7.53;2.28;;;;;;;;;;5115200;27;20055;-75
2023/10/18 12:18:54;;;;;;;10.52;2.20;;;;;;;;;;5114387;27;20054;-75
2023/10/18 12:21:21;;;;;;;8.98;2.28;;;;;;;;;;5132740;27;20138;-75
2023/10/18 12:23:48;;;;;;;5.53;1.83;;;;;;;;;;5131917;27;20069;-74
2023/10/18 12:26:14;;;;;;;8.93;2.03;;;;;;;;;;5133071;27;20042;-75
2023/10/18 12:28:41;;;;;;;7.05;2.05;;;;;;;;;;5119531;27;20044;-75
2023/10/18 12:31:16;;;;;;;7.10;2.10;;;;;;;;;;5111973;28;20056;-74
2023/10/18 12:33:49;;;;;;;8.63;2.10;;;;;;;;;;5111835;28;20120;-75
2023/10/18 12:37:02;;;;;;;9.48;2.10;;;;;;;;;;5112051;28;20040;-74
2023/10/18 12:39:06;;;;;;;7.90;2.00;;;;;;;;;;5097416;28;20403;-74
2023/10/18 12:41:36;;;;;;;12.40;2.55;;;;;;;;;;5112024;28;20095;-74
2023/10/18 12:44:04;;;;;;;6.28;2.20;;;;;;;;;;5111377;28;20051;-72
2023/10/18 12:46:31;;;;;;;8.23;2.08;;;;;;;;;;5130953;27;20082;-75
2023/10/18 12:48:57;;;;;;;7.30;1.77;;;;;;;;;;5132225;27;20130;-76
2023/10/18 12:51:41;;;;;;;9.90;2.05;;;;;;;;;;5136923;27;20097;-75
2023/10/18 12:54:10;;;;;;;8.25;2.53;;;;;;;;;;5131227;27;20051;-75
2023/10/18 12:56:38;;;;;;;4.40;1.85;;;;;;;;;;5131908;27;20636;-75
2023/10/18 13:01:42;;;;;;;6.70;2.63;;;;;;;;;;5131885;27;20047;-75
2023/10/18 13:04:17;;;;;;;12.57;2.60;;;;;;;;;;5131311;27;20043;-75
2023/10/18 13:06:45;;;;;;;7.03;2.03;;;;;;;;;;5122764;27;20328;-75
2023/10/18 13:09:18;;;;;;;8.80;2.53;;;;;;;;;;5116685;27;20035;-74
2023/10/18 13:14:31;;;;;;;5.55;2.03;;;;;;;;;;5143043;27;20117;-74
2023/10/18 13:17:03;;;;;;;9.48;2.30;;;;;;;;;;5125110;27;20066;-76
2023/10/18 13:19:31;;;;;;;5.47;1.80;;;;;;;;;;5143235;27;20040;-75
2023/10/18 13:21:58;;;;;;;7.50;2.38;;;;;;;;;;5140347;27;20213;-74
2023/10/18 13:26:54;;;;;;;9.25;2.10;;;;;;;;;;5143586;27;20074;-75
2023/10/18 13:31:50;;;;;;;5.70;1.90;;;;;;;;;;5142968;27;20425;-74
2023/10/18 13:34:18;;;;;;;7.13;1.90;;;;;;;;;;5143083;27;20352;-72
2023/10/18 13:36:49;;;;;;;12.35;2.33;;;;;;;;;;5141964;27;20043;-76
2023/10/18 13:39:17;;;;;;;7.55;2.45;;;;;;;;;;5113220;27;20160;-76
2023/10/18 13:41:48;;;;;;;4.78;1.92;;;;;;;;;;5131632;27;20126;-75
2023/10/18 13:44:14;;;;;;;;;;;;;;;;;;5131616;27;20047;-75
2023/10/18 13:46:41;;;;;;;9.98;2.38;;;;;;;;;;5131477;27;19947;-76
2023/10/18 13:49:24;;;;;;;13.47;2.43;;;;;;;;;;5132966;27;20054;-76
2023/10/18 13:51:55;;;;;;;12.57;2.60;;;;;;;;;;5132505;27;20043;-77
2023/10/18 13:54:22;;;;;;;6.05;1.85;;;;;;;;;;5129942;27;20054;-75
2023/10/18 13:56:49;;;;;;;6.03;2.17;;;;;;;;;;5132394;27;20047;-75
2023/10/18 13:59:17;;;;;;;6.40;1.95;;;;;;;;;;5130927;27;20555;-76
2023/10/18 14:01:49;;;;;;;5.88;2.00;;;;;;;;;;5131170;27;20046;-75
2023/10/18 14:04:24;;;;;;;6.88;1.98;;;;;;;;;;5131599;27;20045;-74
2023/10/18 14:06:57;;;;;;;7.55;2.35;;;;;;;;;;5131415;27;20494;-73
2023/10/18 14:09:25;;;;;;;5.68;2.00;;;;;;;;;;5129652;27;20134;-75
2023/10/18 14:11:52;;;;;;;4.82;2.13;;;;;;;;;;5132562;27;20183;-73
2023/10/18 14:14:20;;;;;;;6.88;2.00;;;;;;;;;;5140134;27;20092;-73
2023/10/18 14:16:48;;;;;;;7.90;1.83;;;;;;;;;;5135727;27;20047;-72
2023/10/18 14:19:19;;;;;;;8.18;2.50;;;;;;;;;;5133280;27;20130;-67
2023/10/18 14:21:48;;;;;;;5.93;1.95;;;;;;;;;;5130841;27;20043;-68
2023/10/18 14:24:17;;;;;;;4.82;1.73;;;;;;;;;;5128414;27;20439;-75
2023/10/18 14:26:45;;;;;;;6.63;1.92;;;;;;;;;;5130216;27;20078;-71
2023/10/18 14:29:12;;;;;;;4.70;1.55;;;;;;;;;;5137723;27;20042;-74
2023/10/18 14:31:41;;;;;;;2.63;1.33;;;;;;;;;;5141690;27;20071;-75
2023/10/18 14:34:08;;;;;;;4.68;1.88;;;;;;;;;;5133552;27;20039;-75
2023/10/18 14:36:35;;;;;;;6.20;1.50;;;;;;;;;;5125385;27;20050;-71
2023/10/18 14:39:06;;;;;;;5.65;1.50;;;;;;;;;;5138215;27;20390;-75
2023/10/18 14:41:33;;;;;;;4.55;1.58;;;;;;;;;;5121089;28;20051;-75
2023/10/18 14:44:01;;;;;;;3.83;1.58;;;;;;;;;;5128952;27;20047;-75
2023/10/18 14:46:29;;;;;;;3.83;1.40;;;;;;;;;;5141367;27;20345;-73
2023/10/18 14:48:59;;;;;;;3.88;1.65;;;;;;;;;;5141922;27;20043;-74
2023/10/18 14:51:28;;;;;;;6.47;2.10;;;;;;;;;;5141455;27;20039;-75
2023/10/18 14:53:54;;;;;;;4.45;1.60;;;;;;;;;;5120723;28;20070;-75
2023/10/18 14:56:24;;;;;;;6.35;1.90;;;;;;;;;;5103212;28;20050;-75
2023/10/18 14:58:57;;;;;;;4.50;1.70;;;;;;;;;;5121102;28;20051;-76
2023/10/18 15:01:25;;;;;;;4.07;1.65;;;;;;;;;;5120677;28;20059;-76
2023/10/18 15:03:52;;;;;;;5.53;1.52;;;;;;;;;;5120899;28;20044;-74
2023/10/18 15:06:19;;;;;;;4.47;1.48;;;;;;;;;;5120326;28;20043;-74
2023/10/18 15:08:50;;;;;;;9.43;1.70;;;;;;;;;;5121642;28;20051;-76
2023/10/18 15:11:19;;;;;;;2.85;1.10;;;;;;;;;;5141211;27;20106;-75
2023/10/18 15:13:47;;;;;;;3.05;1.30;;;;;;;;;;5140976;27;20055;-74
2023/10/18 15:16:18;;;;;;;3.10;1.50;;;;;;;;;;5123080;27;20090;-73
2023/10/18 15:18:48;;;;;;;;;;;;;;;;;;5141773;27;20043;-75
2023/10/18 15:21:16;;;;;;;2.58;1.20;;;;;;;;;;5140228;28;20423;-73
2023/10/18 15:23:46;;;;;;;2.63;1.20;;;;;;;;;;5122678;28;20078;-73
2023/10/18 15:26:25;;;;;;;40.77;2.80;;;;;;;;;;5141548;27;20373;-72
2023/10/18 15:28:52;;;;;;;52.17;4.55;;;;;;;;;;5145477;27;20043;-71
2023/10/18 15:31:19;;;;;;;19.23;3.22;;;;;;;;;;5144174;27;20047;-72
2023/10/18 15:33:46;;;;;;;21.40;2.70;;;;;;;;;;5144716;27;20238;-70
2023/10/18 15:36:23;;;;;;;10.55;2.20;;;;;;;;;;5144408;27;20035;-70
2023/10/18 15:38:54;;;;;;;56.85;4.47;;;;;;;;;;5142186;27;20038;-71
2023/10/18 15:41:22;;;;;;;155.18;10.75;;;;;;;;;;5143657;27;20053;-71
2023/10/18 15:43:52;;;;;;;161.05;9.32;;;;;;;;;;5135260;27;20039;-72
2023/10/18 15:46:30;;;;;;;104.97;6.60;;;;;;;;;;5137827;27;20067;-72
2023/10/18 15:48:57;;;;;;;30.75;3.92;;;;;;;;;;5144815;27;20081;-73
2023/10/18 15:51:26;;;;;;;30.92;3.28;;;;;;;;;;5144627;27;20050;-71
2023/10/18 15:53:54;;;;;;;57.08;2.95;;;;;;;;;;5144251;27;20262;-71
2023/10/18 15:56:25;;;;;;;19.40;2.10;;;;;;;;;;5144936;27;20090;-72
2023/10/18 15:58:54;;;;;;;29.73;3.30;;;;;;;;;;5144377;27;20047;-72
2023/10/18 16:01:22;;;;;;;3.65;1.05;;;;;;;;;;5144535;27;20088;-72
2023/10/18 16:03:49;;;;;;;2.63;0.90;;;;;;;;;;5144977;27;20050;-72
2023/10/18 16:06:18;;;;;;;1.65;0.73;;;;;;;;;;5144516;27;20324;-72
2023/10/18 16:08:51;;;;;;;2.83;0.73;;;;;;;;;;5144263;27;20039;-74
2023/10/18 16:11:17;;;;;;;1.65;0.80;;;;;;;;;;5144886;27;20143;-73